Impacts TAF Board INFO
FOR SITUATIONAL AWARENESS. NOT TO BE USED FOR FLIGHT PLANNING PURPOSES.
IDs:

KMEM - Memphis Intl, TN, US

Issued at 0520 UTC 22 Jul 2018
Updated at 0830 UTC 22 Jul 2018
Potential Impact None Slight Moderate High
Time0754Z 22/09Z 22/10Z 22/11Z 22/12Z 22/13Z 22/14Z 22/15Z 22/16Z 22/17Z 22/18Z 22/19Z 22/20Z 22/21Z>>
Type OBS PRVL PRVL PRVL PRVL PRVL PRVL PRVL PRVL PRVL PRVL PRVL PRVL PRVL
VIS 10 >6 >6 >6 >6 >6 >6 >6 >6 >6 >6 >6 >6 >6
CIG -- -- -- -- -- -- -- -- -- -- -- -- -- --
Cover CLR SKC SKC SKC SKC SKC SKC SCT SCT SCT SCT SCT SCT SCT
FltCat VFR VFR VFR VFR VFR VFR VFR VFR VFR VFR VFR VFR VFR VFR
WX -- -- -- -- -- -- -- -- -- -- -- -- -- --
WDir 10 330 330 330 330 330 330 320 320 320 320 320 320 320
WSpd 4 5 5 5 5 5 5 10 10 10 10 10 10 10
WGst -- -- -- -- -- -- -- -- -- -- -- -- -- --

Raw TAF
KMEM 220520Z 2206/2312 33005KT P6SM SKC
  FM221500 32010KT P6SM SCT050
  FM230000 01005KT P6SM SCT050


Raw METAR
KMEM 220754Z 01004KT 10SM CLR 26/19 A2985 RMK AO2 SLP103 T02560194 $
KMEM 220654Z 01006KT 10SM CLR 26/19 A2986 RMK AO2 SLP105 T02670189 $
KMEM 220554Z 36008KT 10SM CLR 26/20 A2986 RMK AO2 SLP105 T02610194 56001 $

METAR Board
Radar Display
Forecast Discussion

FOR SITUATIONAL AWARENESS. NOT TO BE USED FOR FLIGHT PLANNING PURPOSES.